Time;durP1;ratioP1;P1;durP2;ratioP2;P2;SDS_P1;SDS_P2;PMS_P1;PMS_P2;Temp;Humidity;BMP_temperature;BMP_pressure;BME280_temperature;BME280_humidity;BME280_pressure;Samples;Min_cycle;Max_cycle;Signal;HPM_P1;HPM_P2
2022/11/26 00:03:38;;;;;;;93.05;23.08;;;;;8.10;97059.00;;;;8434195;28;20241;-74
2022/11/26 00:07:48;;;;;;;91.60;22.90;;;;;8.10;97061.00;;;;8432895;28;20192;-74
2022/11/26 00:11:52;;;;;;;78.57;20.80;;;;;8.00;97069.00;;;;8433110;28;20198;-73
2022/11/26 00:16:29;;;;;;;89.45;22.40;;;;;7.90;97066.00;;;;8433627;28;20211;-73
2022/11/26 00:20:32;;;;;;;87.77;22.33;;;;;7.90;97067.00;;;;8433451;28;20555;-73
2022/11/26 00:24:37;;;;;;;81.80;21.17;;;;;7.90;97067.00;;;;8432591;28;20587;-73
2022/11/26 00:28:47;;;;;;;93.17;21.93;;;;;7.90;97072.00;;;;8432440;28;20223;-73
2022/11/26 00:32:50;;;;;;;96.70;21.83;;;;;7.90;97076.00;;;;8432025;28;20246;-73
2022/11/26 00:36:53;;;;;;;81.88;21.30;;;;;8.00;97075.00;;;;8433133;28;20199;-74
2022/11/26 00:40:58;;;;;;;87.30;21.30;;;;;7.90;97084.00;;;;8431594;28;20203;-74
2022/11/26 00:45:02;;;;;;;86.10;22.57;;;;;7.90;97087.00;;;;8431577;28;20191;-74
2022/11/26 00:49:05;;;;;;;88.47;21.90;;;;;8.00;97095.00;;;;8432178;28;20310;-74
2022/11/26 00:53:12;;;;;;;94.50;21.27;;;;;8.10;97096.00;;;;8432215;28;20203;-74
2022/11/26 00:57:16;;;;;;;81.50;21.47;;;;;8.10;97099.00;;;;8431529;28;20237;-74
2022/11/26 01:06:20;;;;;;;74.83;20.13;;;;;8.10;97105.00;;;;8431969;28;20222;-74
2022/11/26 01:10:26;;;;;;;78.80;20.90;;;;;8.10;97121.00;;;;8431855;28;20219;-75
2022/11/26 01:14:30;;;;;;;77.50;19.83;;;;;8.10;97122.00;;;;8432330;28;20191;-75
2022/11/26 01:18:35;;;;;;;84.10;20.83;;;;;8.10;97123.00;;;;8431524;28;20674;-75
2022/11/26 01:23:10;;;;;;;74.73;20.60;;;;;8.10;97130.00;;;;8431250;28;20191;-75
2022/11/26 01:27:13;;;;;;;75.33;21.10;;;;;8.10;97133.00;;;;8432092;28;20223;-76
2022/11/26 01:31:20;;;;;;;89.30;21.40;;;;;8.20;97141.00;;;;8431408;28;20241;-75
2022/11/26 01:35:54;;;;;;;95.28;21.02;;;;;8.20;97150.00;;;;8431138;28;20518;-75
2022/11/26 01:39:57;;;;;;;95.67;20.57;;;;;8.30;97146.00;;;;8431540;28;20191;-75
2022/11/26 01:44:01;;;;;;;80.40;20.93;;;;;8.30;97151.00;;;;8431856;28;20195;-75
2022/11/26 01:48:21;;;;;;;85.13;22.60;;;;;8.30;97151.00;;;;8430721;28;20188;-76
2022/11/26 01:52:40;;;;;;;98.93;22.47;;;;;8.30;97154.00;;;;8430850;28;20199;-76
2022/11/26 01:56:47;;;;;;;95.07;22.07;;;;;8.30;97159.00;;;;8429711;28;20240;-75
2022/11/26 02:00:51;;;;;;;75.87;21.00;;;;;8.30;97158.00;;;;8430782;28;20207;-75
2022/11/26 02:05:26;;;;;;;98.47;21.17;;;;;8.20;97159.00;;;;8430362;28;20540;-76
2022/11/26 02:09:31;;;;;;;100.28;20.85;;;;;8.20;97167.00;;;;8430179;28;20227;-75
2022/11/26 02:13:39;;;;;;;88.33;20.67;;;;;8.20;97159.00;;;;8435033;28;20260;-75
2022/11/26 02:18:11;;;;;;;77.90;19.15;;;;;8.20;97168.00;;;;8438393;28;20200;-75
2022/11/26 02:22:29;;;;;;;83.25;21.65;;;;;8.10;97156.00;;;;8437229;28;20612;-74
2022/11/26 02:27:10;;;;;;;79.40;21.03;;;;;8.10;97148.00;;;;8436819;28;20698;-74
2022/11/26 02:31:23;;;;;;;86.30;20.90;;;;;8.00;97141.00;;;;8436367;28;20223;-74
2022/11/26 02:35:53;;;;;;;94.23;20.90;;;;;8.00;97168.00;;;;8435904;28;20636;-75
2022/11/26 02:39:57;;;;;;;80.30;20.10;;;;;8.00;97163.00;;;;8436256;28;20244;-76
2022/11/26 02:44:00;;;;;;;95.70;21.03;;;;;8.00;97179.00;;;;8436495;28;20225;-76
2022/11/26 02:48:11;;;;;;;93.07;20.80;;;;;8.00;97183.00;;;;8435341;28;20188;-76
2022/11/26 02:52:16;;;;;;;105.93;22.10;;;;;8.00;97173.00;;;;8435912;28;20219;-76
2022/11/26 02:56:22;;;;;;;89.70;20.33;;;;;8.10;97177.00;;;;8436433;28;20244;-76
2022/11/26 03:00:25;;;;;;;75.93;18.47;;;;;8.10;97182.00;;;;8436322;28;20224;-76
2022/11/26 03:04:34;;;;;;;61.85;17.60;;;;;8.10;97191.00;;;;8435259;28;20196;-77
2022/11/26 03:09:05;;;;;;;80.70;17.67;;;;;8.00;97194.00;;;;8437089;28;20609;-76
2022/11/26 03:13:09;;;;;;;71.60;17.87;;;;;8.00;97195.00;;;;8435765;28;20203;-76
2022/11/26 03:17:12;;;;;;;62.47;16.70;;;;;8.10;97197.00;;;;8435193;28;20195;-76
2022/11/26 03:21:17;;;;;;;51.53;16.43;;;;;8.00;97199.00;;;;8435359;28;20245;-76
2022/11/26 03:25:53;;;;;;;59.75;16.42;;;;;8.00;97206.00;;;;8434501;28;20295;-76
2022/11/26 03:29:57;;;;;;;61.20;16.27;;;;;8.00;97202.00;;;;8434167;28;20276;-76
2022/11/26 03:34:00;;;;;;;59.13;15.93;;;;;8.00;97201.00;;;;8434443;28;20196;-76
2022/11/26 03:38:05;;;;;;;70.77;16.23;;;;;8.00;97209.00;;;;8433760;28;20613;-76
2022/11/26 03:42:39;;;;;;;57.43;15.00;;;;;8.10;97198.00;;;;8434318;28;20229;-76
2022/11/26 03:46:42;;;;;;;56.23;13.93;;;;;8.00;97215.00;;;;8434744;28;20624;-76
2022/11/26 03:50:45;;;;;;;51.60;14.17;;;;;8.00;97220.00;;;;8433682;28;20253;-76
2022/11/26 03:55:26;;;;;;;54.23;14.30;;;;;8.00;97223.00;;;;8434061;28;20195;-76
2022/11/26 03:59:29;;;;;;;60.93;14.20;;;;;8.00;97232.00;;;;8433859;28;20203;-76
2022/11/26 04:03:32;;;;;;;59.10;14.20;;;;;8.00;97231.00;;;;8433441;28;20631;-76
2022/11/26 04:08:09;;;;;;;53.10;13.63;;;;;7.90;97235.00;;;;8425090;28;20187;-77
2022/11/26 04:12:13;;;;;;;48.10;14.15;;;;;8.00;97240.00;;;;8433628;28;20222;-77
2022/11/26 04:16:17;;;;;;;54.00;14.23;;;;;8.00;97243.00;;;;8432770;28;20245;-77
2022/11/26 04:20:20;;;;;;;51.20;13.93;;;;;8.10;97253.00;;;;8434237;28;20625;-76
2022/11/26 04:24:23;;;;;;;46.07;14.87;;;;;8.00;97256.00;;;;8432364;28;20199;-76
2022/11/26 04:28:28;;;;;;;49.70;12.57;;;;;8.00;97256.00;;;;8432396;28;20211;-76
2022/11/26 04:32:31;;;;;;;52.63;13.07;;;;;8.00;97260.00;;;;8430520;28;20241;-76
2022/11/26 04:36:34;;;;;;;46.70;13.30;;;;;7.90;97257.00;;;;8430102;28;20261;-74
2022/11/26 04:41:11;;;;;;;57.97;13.90;;;;;7.80;97259.00;;;;8431770;28;20529;-75
2022/11/26 04:45:16;;;;;;;50.03;13.47;;;;;7.70;97274.00;;;;8431952;28;20203;-73
2022/11/26 04:49:19;;;;;;;53.97;14.43;;;;;7.70;97286.00;;;;8432513;28;20240;-73
2022/11/26 04:53:56;;;;;;;61.50;14.23;;;;;7.70;97289.00;;;;8432212;28;20639;-73
2022/11/26 04:58:04;;;;;;;55.43;14.77;;;;;7.80;97293.00;;;;8431589;28;20172;-74
2022/11/26 05:02:43;;;;;;;54.47;13.93;;;;;7.80;97299.00;;;;8432226;28;20196;-74
2022/11/26 05:06:46;;;;;;;62.90;14.63;;;;;7.90;97306.00;;;;8430709;28;20188;-74
2022/11/26 05:11:23;;;;;;;56.53;15.53;;;;;7.90;97308.00;;;;8423677;28;20730;-75
2022/11/26 05:16:00;;;;;;;78.60;16.60;;;;;7.90;97312.00;;;;8428645;28;20191;-75
2022/11/26 05:20:37;;;;;;;57.00;15.67;;;;;8.00;97311.00;;;;8429137;28;20533;-75
2022/11/26 05:25:16;;;;;;;50.93;14.20;;;;;8.00;97320.00;;;;8430924;28;20195;-75
2022/11/26 05:29:19;;;;;;;59.40;15.73;;;;;8.00;97324.00;;;;8432411;28;20219;-75
2022/11/26 05:33:56;;;;;;;52.72;15.30;;;;;8.10;97330.00;;;;8431433;28;20664;-75
2022/11/26 05:38:33;;;;;;;71.77;16.30;;;;;8.10;97339.00;;;;8432231;28;20639;-75
2022/11/26 05:43:09;;;;;;;71.33;15.37;;;;;8.20;97350.00;;;;8431299;28;20203;-74
2022/11/26 05:47:14;;;;;;;59.60;15.27;;;;;8.20;97352.00;;;;8434053;28;20261;-75
2022/11/26 05:51:48;;;;;;;54.80;14.60;;;;;8.20;97353.00;;;;8436471;28;20222;-77
2022/11/26 05:55:56;;;;;;;66.20;14.93;;;;;8.20;97349.00;;;;8436179;28;20195;-77
2022/11/26 06:00:00;;;;;;;59.87;15.00;;;;;8.20;97357.00;;;;8437515;28;20215;-77
2022/11/26 06:04:05;;;;;;;64.20;15.13;;;;;8.20;97355.00;;;;8437950;28;20252;-77
2022/11/26 06:08:09;;;;;;;55.27;15.67;;;;;8.20;97364.00;;;;8436489;28;20223;-75
2022/11/26 06:12:45;;;;;;;56.80;16.30;;;;;8.20;97357.00;;;;8437160;28;20255;-77
2022/11/26 06:17:23;;;;;;;53.30;14.20;;;;;8.30;97366.00;;;;8435470;28;20203;-78
2022/11/26 06:22:01;;;;;;;50.87;13.37;;;;;8.20;97361.00;;;;8436196;28;20192;-79
2022/11/26 06:26:08;;;;;;;56.20;13.87;;;;;8.30;97374.00;;;;8434091;28;20200;-78
2022/11/26 06:30:18;;;;;;;60.93;15.17;;;;;8.30;97373.00;;;;8434605;28;20269;-80
2022/11/26 06:34:54;;;;;;;66.73;14.60;;;;;8.30;97374.00;;;;8436658;28;20202;-82
2022/11/26 06:38:58;;;;;;;53.67;15.00;;;;;8.30;97378.00;;;;8435348;28;20526;-80
2022/11/26 06:43:32;;;;;;;57.03;16.23;;;;;8.30;97380.00;;;;8434856;28;20594;-79
2022/11/26 06:48:09;;;;;;;63.23;16.13;;;;;8.30;97387.00;;;;8436837;28;20215;-79
2022/11/26 06:52:13;;;;;;;51.90;14.33;;;;;8.30;97401.00;;;;8435452;28;20299;-79
2022/11/26 06:56:50;;;;;;;54.63;14.43;;;;;8.30;97398.00;;;;8434568;28;20195;-79
2022/11/26 07:06:28;;;;;;;62.78;15.00;;;;;8.30;97413.00;;;;8435265;28;20290;-79
2022/11/26 07:11:04;;;;;;;67.10;16.23;;;;;8.20;97424.00;;;;8433633;28;20223;-79
2022/11/26 07:15:08;;;;;;;68.60;17.50;;;;;8.20;97421.00;;;;8435464;28;20629;-79
2022/11/26 07:19:13;;;;;;;63.53;17.67;;;;;8.20;97432.00;;;;8433978;28;20583;-79
2022/11/26 07:23:52;;;;;;;71.83;18.43;;;;;8.20;97425.00;;;;8433749;28;20240;-78
2022/11/26 07:28:23;;;;;;;69.67;16.80;;;;;8.20;97441.00;;;;8434021;28;20211;-78
2022/11/26 07:32:26;;;;;;;74.65;17.95;;;;;8.30;97447.00;;;;8433910;28;20656;-77
2022/11/26 07:37:03;;;;;;;70.00;17.07;;;;;8.20;97449.00;;;;8433268;28;20241;-78
2022/11/26 07:49:30;;;;;;;83.23;18.53;;;;;7.60;97454.00;;;;8527475;27;20274;-80
2022/11/26 07:56:40;;;;;;;85.90;18.40;;;;;8.10;97459.00;;;;8425867;28;20278;-79
2022/11/26 08:01:15;;;;;;;69.10;16.90;;;;;8.40;97462.00;;;;8427308;28;20206;-80
2022/11/26 08:05:18;;;;;;;67.10;15.77;;;;;8.50;97469.00;;;;8425268;28;20200;-80
2022/11/26 08:17:47;;;;;;;53.07;15.27;;;;;7.90;97476.00;;;;8425197;27;20557;-74
2022/11/26 08:23:59;;;;;;;39.87;10.83;;;;;8.20;97481.00;;;;8492909;27;20759;-77
2022/11/26 08:28:02;;;;;;;39.45;10.63;;;;;8.30;97477.00;;;;8494556;27;20555;-82
2022/11/26 08:32:38;;;;;;;47.43;10.30;;;;;8.30;97464.00;;;;8493958;27;21037;-78
2022/11/26 08:36:42;;;;;;;34.83;10.43;;;;;8.40;97479.00;;;;8493173;27;20243;-78
2022/11/26 08:41:20;;;;;;;40.17;10.87;;;;;8.60;97483.00;;;;8494207;27;20551;-77
2022/11/26 08:45:23;;;;;;;40.47;10.50;;;;;8.60;97484.00;;;;8490854;27;20198;-78
2022/11/26 08:50:00;;;;;;;36.33;10.33;;;;;8.60;97483.00;;;;8492826;27;20194;-76
2022/11/26 08:54:04;;;;;;;96.82;40.63;;;;;8.50;97496.00;;;;8493509;28;20285;-76
2022/11/26 08:58:44;;;;;;;66.73;26.80;;;;;8.50;97497.00;;;;8492840;27;20210;-81
2022/11/26 09:03:18;;;;;;;84.00;33.83;;;;;8.50;97496.00;;;;8493135;27;20291;-80
2022/11/26 09:07:21;;;;;;;45.93;12.47;;;;;8.50;97509.00;;;;8492856;27;20538;-80
2022/11/26 09:11:59;;;;;;;38.13;11.90;;;;;8.50;97521.00;;;;8491582;27;20584;-78
2022/11/26 09:16:35;;;;;;;55.60;14.30;;;;;8.50;97528.00;;;;8491629;27;20422;-78
2022/11/26 09:21:08;;;;;;;47.58;17.08;;;;;8.70;97540.00;;;;8488792;27;20441;-78
2022/11/26 09:25:45;;;;;;;41.70;14.10;;;;;9.00;97537.00;;;;8491801;27;20225;-78
2022/11/26 09:30:27;;;;;;;33.80;10.75;;;;;8.90;97546.00;;;;8491730;27;20663;-78
2022/11/26 09:35:02;;;;;;;36.08;11.13;;;;;8.70;97544.00;;;;8469536;27;20256;-84
2022/11/26 09:39:36;;;;;;;26.02;10.70;;;;;8.70;97547.00;;;;8468269;28;20239;-84
2022/11/26 09:43:51;;;;;;;27.45;10.25;;;;;8.60;97548.00;;;;8468341;28;20219;-85
2022/11/26 09:47:55;;;;;;;31.55;10.65;;;;;8.60;97551.00;;;;8469353;28;20193;-79
2022/11/26 09:52:32;;;;;;;34.00;9.82;;;;;8.70;97547.00;;;;8468856;28;20697;-79
2022/11/26 09:57:17;;;;;;;38.77;13.00;;;;;8.80;97554.00;;;;8468920;28;20191;-79
2022/11/26 10:01:45;;;;;;;37.22;12.05;;;;;8.90;97552.00;;;;8467757;28;20222;-79
2022/11/26 10:06:21;;;;;;;34.28;13.23;;;;;9.00;97556.00;;;;8467975;28;20186;-78
2022/11/26 10:11:02;;;;;;;41.65;13.48;;;;;9.00;97559.00;;;;8468065;28;20210;-78
2022/11/26 10:15:43;;;;;;;42.20;13.70;;;;;8.90;97541.00;;;;8468559;28;20187;-78
2022/11/26 10:20:23;;;;;;;53.33;14.30;;;;;9.10;97539.00;;;;8467707;28;20505;-79
2022/11/26 10:24:30;;;;;;;38.58;12.80;;;;;9.30;97529.00;;;;8468281;28;20214;-81
2022/11/26 10:29:00;;;;;;;34.35;12.82;;;;;9.50;97542.00;;;;8467744;28;20267;-85
2022/11/26 10:33:43;;;;;;;42.80;13.75;;;;;9.90;97536.00;;;;8467572;28;20191;-84
2022/11/26 10:38:14;;;;;;;42.17;12.65;;;;;9.90;97525.00;;;;8468320;28;20195;-81
2022/11/26 10:42:20;;;;;;;33.25;12.15;;;;;9.90;97526.00;;;;8467077;28;20252;-81
2022/11/26 10:46:53;;;;;;;36.13;12.73;;;;;9.90;97535.00;;;;8463742;28;20191;-82
2022/11/26 10:51:15;;;;;;;25.25;10.20;;;;;9.90;97524.00;;;;8466965;28;20205;-81
2022/11/26 10:55:53;;;;;;;26.98;9.88;;;;;9.70;97531.00;;;;8465881;28;20189;-82
2022/11/26 11:00:32;;;;;;;22.65;9.45;;;;;9.60;97540.00;;;;8465664;28;20187;-81
2022/11/26 11:05:09;;;;;;;19.67;8.13;;;;;9.30;97530.00;;;;8464454;28;20220;-81
2022/11/26 11:09:26;;;;;;;25.63;9.90;;;;;9.20;97536.00;;;;8465876;28;20201;-82
2022/11/26 11:13:40;;;;;;;25.52;10.25;;;;;9.30;97533.00;;;;8465927;28;20194;-82
2022/11/26 11:17:44;;;;;;;24.40;10.37;;;;;9.50;97532.00;;;;8466101;28;20236;-83
2022/11/26 11:21:47;;;;;;;18.97;8.73;;;;;9.60;97539.00;;;;8466077;28;20218;-83
2022/11/26 11:26:01;;;;;;;23.58;10.23;;;;;9.70;97527.00;;;;8465820;28;20191;-82
2022/11/26 11:35:24;;;;;;;16.97;9.17;;;;;10.00;97535.00;;;;8524294;27;20429;-77
2022/11/26 11:40:04;;;;;;;13.25;6.75;;;;;10.40;97533.00;;;;8527948;27;20222;-79
2022/11/26 11:44:16;;;;;;;12.35;7.85;;;;;10.20;97534.00;;;;8528325;27;20281;-79
2022/11/26 11:48:48;;;;;;;18.30;8.38;;;;;10.00;97543.00;;;;8527125;27;20198;-79
2022/11/26 11:53:28;;;;;;;20.42;8.45;;;;;9.90;97540.00;;;;8527099;27;20221;-78
2022/11/26 11:58:00;;;;;;;19.50;8.07;;;;;9.80;97542.00;;;;8527908;27;20201;-78
2022/11/26 12:02:33;;;;;;;14.30;7.65;;;;;9.60;97546.00;;;;8526849;27;20196;-79
2022/11/26 12:07:11;;;;;;;24.50;8.23;;;;;9.30;97540.00;;;;8525061;27;20194;-78
2022/11/26 12:11:28;;;;;;;19.27;7.40;;;;;9.30;97540.00;;;;8526943;27;20190;-78
2022/11/26 12:15:37;;;;;;;16.90;8.05;;;;;9.20;97541.00;;;;8526784;27;20178;-78
2022/11/26 12:19:47;;;;;;;16.07;7.00;;;;;9.10;97543.00;;;;8526519;27;20190;-79
2022/11/26 12:23:56;;;;;;;27.73;8.77;;;;;9.10;97546.00;;;;8527202;27;20185;-84
2022/11/26 12:28:04;;;;;;;20.35;9.10;;;;;9.10;97551.00;;;;8526443;27;20667;-82
2022/11/26 12:32:39;;;;;;;17.88;8.57;;;;;9.00;97556.00;;;;8526664;27;20217;-81
2022/11/26 12:36:49;;;;;;;19.30;8.20;;;;;8.80;97558.00;;;;8526829;27;20263;-80
2022/11/26 12:41:19;;;;;;;23.73;8.52;;;;;8.60;97552.00;;;;8525898;27;20279;-74
2022/11/26 12:45:44;;;;;;;17.35;8.90;;;;;8.50;97547.00;;;;8507221;27;20219;-79
2022/11/26 12:50:13;;;;;;;22.77;9.67;;;;;8.40;97544.00;;;;8501866;27;20293;-72
2022/11/26 12:54:39;;;;;;;22.07;9.07;;;;;8.40;97547.00;;;;8502961;27;20687;-70
2022/11/26 12:59:18;;;;;;;19.97;8.23;;;;;8.40;97555.00;;;;8502981;27;20194;-74
2022/11/26 13:03:48;;;;;;;18.08;8.07;;;;;8.50;97550.00;;;;8503281;27;20190;-73
2022/11/26 13:08:40;;;;;;;23.17;8.90;;;;;8.50;97555.00;;;;8501661;27;20238;-74
2022/11/26 13:13:13;;;;;;;17.77;6.90;;;;;8.50;97552.00;;;;8502208;27;20213;-73
2022/11/26 13:17:41;;;;;;;17.57;9.00;;;;;8.60;97551.00;;;;8503268;27;20197;-73
2022/11/26 13:22:27;;;;;;;22.63;9.17;;;;;8.70;97551.00;;;;8502691;27;20193;-73
2022/11/26 13:27:06;;;;;;;17.38;9.10;;;;;8.70;97544.00;;;;8500982;27;20216;-74
2022/11/26 13:31:45;;;;;;;28.43;10.33;;;;;8.60;97557.00;;;;8501302;27;20251;-73
2022/11/26 13:36:35;;;;;;;25.87;10.97;;;;;8.50;97547.00;;;;8500770;27;20233;-73
2022/11/26 13:46:10;;;;;;;25.67;11.47;;;;;8.50;97548.00;;;;8364105;28;20669;-71
2022/11/26 13:50:50;;;;;;;30.88;10.70;;;;;8.40;97549.00;;;;8359336;28;20239;-73
2022/11/26 13:55:26;;;;;;;33.07;11.93;;;;;8.40;97541.00;;;;8361522;28;20225;-74
2022/11/26 13:59:30;;;;;;;26.35;11.18;;;;;8.30;97538.00;;;;8388121;27;20194;-73
2022/11/26 14:03:44;;;;;;;27.53;10.83;;;;;8.20;97536.00;;;;8500507;27;20201;-73
2022/11/26 14:07:49;;;;;;;37.90;12.50;;;;;8.10;97541.00;;;;8500443;27;20191;-73
2022/11/26 14:11:56;;;;;;;27.83;10.87;;;;;8.10;97544.00;;;;8500519;27;20229;-73
2022/11/26 14:16:01;;;;;;;24.75;10.02;;;;;8.00;97542.00;;;;8500964;27;20700;-73
2022/11/26 14:20:10;;;;;;;19.20;9.07;;;;;7.90;97541.00;;;;8499771;27;20198;-73
2022/11/26 14:24:50;;;;;;;30.90;10.07;;;;;7.80;97544.00;;;;8500656;27;20202;-72
2022/11/26 14:29:01;;;;;;;30.27;10.67;;;;;7.70;97541.00;;;;8499779;27;20313;-72
2022/11/26 14:33:43;;;;;;;24.90;10.67;;;;;7.60;97538.00;;;;8498110;27;20225;-73
2022/11/26 14:37:55;;;;;;;30.77;10.87;;;;;7.50;97536.00;;;;8498176;27;20544;-73
2022/11/26 14:42:29;;;;;;;29.53;10.60;;;;;7.30;97540.00;;;;8500439;27;20635;-73
2022/11/26 14:47:11;;;;;;;23.50;9.63;;;;;7.20;97542.00;;;;8498613;27;20194;-73
2022/11/26 14:51:43;;;;;;;25.13;10.63;;;;;7.10;97537.00;;;;8497722;27;20528;-72
2022/11/26 14:56:18;;;;;;;31.90;9.97;;;;;7.00;97540.00;;;;8499662;27;20556;-73
2022/11/26 15:01:07;;;;;;;31.30;11.77;;;;;6.90;97545.00;;;;8499291;27;20194;-73
2022/11/26 15:10:19;;;;;;;27.17;11.23;;;;;6.60;97554.00;;;;8498298;27;20209;-74
2022/11/26 15:14:45;;;;;;;28.60;11.97;;;;;6.50;97556.00;;;;8499591;27;20218;-75
2022/11/26 15:19:19;;;;;;;22.43;10.30;;;;;6.40;97566.00;;;;8498075;27;20190;-75
2022/11/26 15:23:57;;;;;;;25.77;10.73;;;;;6.20;97570.00;;;;8498301;27;20239;-74
2022/11/26 15:28:05;;;;;;;28.17;9.87;;;;;6.00;97571.00;;;;8499229;27;20221;-75
2022/11/26 15:32:36;;;;;;;30.07;10.33;;;;;5.90;97582.00;;;;8498208;27;20225;-74
2022/11/26 15:37:13;;;;;;;22.40;10.00;;;;;5.70;97578.00;;;;8498172;28;20638;-74
2022/11/26 15:41:19;;;;;;;25.37;9.73;;;;;5.50;97578.00;;;;8499233;28;20201;-74
2022/11/26 15:45:52;;;;;;;23.17;10.07;;;;;5.20;97571.00;;;;8498135;27;20580;-75
2022/11/26 15:50:28;;;;;;;23.40;9.93;;;;;5.10;97566.00;;;;8498166;27;20280;-74
2022/11/26 15:54:34;;;;;;;23.37;10.87;;;;;5.00;97564.00;;;;8499016;28;20225;-74
2022/11/26 15:59:39;;;;;;;29.80;12.10;;;;;4.80;97577.00;;;;8498358;28;20606;-77
2022/11/26 16:03:45;;;;;;;31.30;12.73;;;;;4.60;97581.00;;;;8497088;28;20628;-75
2022/11/26 16:07:57;;;;;;;30.33;13.37;;;;;4.60;97583.00;;;;8496329;27;20193;-75
2022/11/26 16:12:26;;;;;;;30.63;12.07;;;;;4.50;97588.00;;;;8496541;27;20235;-76
2022/11/26 16:17:05;;;;;;;38.67;16.07;;;;;4.20;97580.00;;;;8498307;28;20204;-76
2022/11/26 16:21:18;;;;;;;37.13;13.90;;;;;4.00;97587.00;;;;8504042;27;20286;-76
2022/11/26 16:26:05;;;;;;;34.00;12.60;;;;;3.70;97574.00;;;;8503891;27;20204;-76
2022/11/26 16:30:30;;;;;;;38.03;14.33;;;;;3.50;97576.00;;;;8503180;27;20210;-75
2022/11/26 16:34:59;;;;;;;34.77;13.97;;;;;3.40;97568.00;;;;8503128;27;20674;-76
2022/11/26 16:39:24;;;;;;;43.60;16.07;;;;;3.30;97568.00;;;;8503726;27;20535;-73
2022/11/26 16:43:59;;;;;;;42.17;15.40;;;;;3.20;97570.00;;;;8504480;27;20519;-72
2022/11/26 16:48:40;;;;;;;51.43;17.37;;;;;3.10;97566.00;;;;8503540;27;20539;-72
2022/11/26 16:52:43;;;;;;;40.07;16.87;;;;;3.10;97560.00;;;;8503994;27;20530;-72
2022/11/26 16:56:47;;;;;;;36.93;14.67;;;;;2.90;97555.00;;;;8504153;27;20568;-72
2022/11/26 17:01:26;;;;;;;37.23;14.20;;;;;2.80;97560.00;;;;8504098;27;20194;-72
2022/11/26 17:05:30;;;;;;;39.27;13.00;;;;;2.80;97579.00;;;;8502572;27;20231;-72
2022/11/26 17:09:33;;;;;;;33.93;13.63;;;;;2.80;97584.00;;;;8503677;27;20242;-72
2022/11/26 17:14:12;;;;;;;34.73;14.93;;;;;2.80;97590.00;;;;8502765;27;20288;-72
2022/11/26 17:18:19;;;;;;;42.37;15.13;;;;;2.80;97587.00;;;;8502829;27;20246;-72
2022/11/26 17:22:23;;;;;;;41.07;17.37;;;;;2.80;97586.00;;;;8503000;27;20320;-72
2022/11/26 17:26:26;;;;;;;42.87;18.40;;;;;2.80;97586.00;;;;8502412;27;20187;-72
2022/11/26 17:30:30;;;;;;;50.37;19.67;;;;;2.70;97592.00;;;;8501686;27;20220;-72
2022/11/26 17:34:34;;;;;;;53.37;17.90;;;;;2.70;97597.00;;;;8502806;27;20629;-72
2022/11/26 17:39:11;;;;;;;61.83;18.80;;;;;2.70;97588.00;;;;8502113;27;20229;-72
2022/11/26 17:43:14;;;;;;;46.07;17.83;;;;;2.70;97584.00;;;;8502410;27;20226;-72
2022/11/26 17:47:20;;;;;;;61.80;19.77;;;;;2.60;97586.00;;;;8501943;27;20237;-72
2022/11/26 17:51:24;;;;;;;116.17;21.20;;;;;2.50;97588.00;;;;8501973;27;20193;-72
2022/11/26 17:56:00;;;;;;;156.23;22.03;;;;;2.50;97587.00;;;;8501397;27;20229;-73
2022/11/26 18:00:38;;;;;;;194.43;23.93;;;;;2.50;97591.00;;;;8501974;27;20191;-72
2022/11/26 18:05:16;;;;;;;42.37;14.13;;;;;2.40;97590.00;;;;8501262;27;20201;-73
2022/11/26 18:09:19;;;;;;;70.43;18.47;;;;;2.20;97601.00;;;;8501543;27;20286;-72
2022/11/26 18:13:22;;;;;;;77.30;18.53;;;;;2.20;97610.00;;;;8501615;27;20211;-71
2022/11/26 18:17:26;;;;;;;135.23;18.33;;;;;2.20;97612.00;;;;8500543;27;20641;-70
2022/11/26 18:21:31;;;;;;;132.93;17.77;;;;;2.20;97618.00;;;;8502157;27;20555;-70
2022/11/26 18:26:06;;;;;;;237.60;22.43;;;;;2.10;97614.00;;;;8501171;27;20198;-70
2022/11/26 18:30:10;;;;;;;244.93;23.53;;;;;2.10;97616.00;;;;8499747;27;20224;-70
2022/11/26 18:34:13;;;;;;;260.37;22.87;;;;;2.00;97616.00;;;;8499340;27;20249;-70
2022/11/26 18:38:17;;;;;;;53.80;14.83;;;;;1.80;97626.00;;;;8500634;27;20192;-70
2022/11/26 18:42:20;;;;;;;174.80;27.07;;;;;1.70;97619.00;;;;8499095;27;20208;-70
2022/11/26 18:46:57;;;;;;;82.17;18.50;;;;;1.70;97622.00;;;;8499806;27;20210;-69
2022/11/26 18:51:00;;;;;;;91.37;17.20;;;;;1.60;97622.00;;;;8499199;27;20192;-70
2022/11/26 18:55:07;;;;;;;39.37;15.50;;;;;1.60;97615.00;;;;8500222;27;20290;-69
2022/11/26 18:59:12;;;;;;;89.47;16.70;;;;;1.70;97621.00;;;;8500161;27;20199;-69
2022/11/26 19:03:46;;;;;;;43.50;16.23;;;;;1.70;97608.00;;;;8500296;27;20250;-70
2022/11/26 19:07:49;;;;;;;39.70;15.33;;;;;1.80;97606.00;;;;8499320;27;20188;-70
2022/11/26 19:11:54;;;;;;;104.07;25.53;;;;;1.90;97607.00;;;;8499733;27;20193;-70
2022/11/26 19:15:58;;;;;;;54.20;16.53;;;;;2.00;97607.00;;;;8498851;27;20211;-70
2022/11/26 19:20:01;;;;;;;255.77;25.37;;;;;2.00;97611.00;;;;8499652;27;20622;-70
2022/11/26 19:24:35;;;;;;;85.90;21.97;;;;;2.10;97604.00;;;;8498504;27;20197;-70
2022/11/26 19:28:39;;;;;;;87.27;21.80;;;;;2.00;97608.00;;;;8496240;27;20308;-70
2022/11/26 19:33:13;;;;;;;198.67;22.17;;;;;2.00;97596.00;;;;8488257;27;20194;-70
2022/11/26 19:37:50;;;;;;;90.77;18.63;;;;;1.90;97593.00;;;;8498797;27;20661;-69
2022/11/26 19:41:54;;;;;;;106.53;23.70;;;;;1.90;97589.00;;;;8499690;27;20207;-69
2022/11/26 19:46:29;;;;;;;133.47;22.43;;;;;1.90;97583.00;;;;8498218;27;20240;-68
2022/11/26 19:51:03;;;;;;;339.60;29.10;;;;;1.90;97584.00;;;;8498575;28;20205;-68
2022/11/26 19:55:39;;;;;;;195.17;23.53;;;;;1.80;97578.00;;;;8502700;27;20600;-68
2022/11/26 20:00:16;;;;;;;293.27;28.13;;;;;1.80;97570.00;;;;8505410;27;20199;-68
2022/11/26 20:04:55;;;;;;;172.70;22.50;;;;;1.70;97560.00;;;;8505712;27;20242;-68
2022/11/26 20:09:29;;;;;;;275.53;24.63;;;;;1.60;97559.00;;;;8505768;27;20256;-68
2022/11/26 20:14:08;;;;;;;236.23;23.93;;;;;1.60;97560.00;;;;8505218;27;20219;-68
2022/11/26 20:18:42;;;;;;;125.53;23.57;;;;;1.60;97568.00;;;;8504629;27;20195;-68
2022/11/26 20:23:21;;;;;;;117.47;21.93;;;;;1.50;97562.00;;;;8505106;27;20260;-67
2022/11/26 20:27:56;;;;;;;123.50;22.70;;;;;1.50;97564.00;;;;8504518;27;20558;-68
2022/11/26 20:32:34;;;;;;;106.20;22.30;;;;;1.60;97567.00;;;;8504346;27;20184;-67
2022/11/26 20:36:37;;;;;;;99.87;20.17;;;;;1.60;97568.00;;;;8503708;27;20216;-67
2022/11/26 20:40:43;;;;;;;195.83;25.00;;;;;1.60;97566.00;;;;8504230;27;20212;-66
2022/11/26 20:44:46;;;;;;;245.10;27.47;;;;;1.60;97559.00;;;;8504229;27;20195;-66
2022/11/26 20:48:49;;;;;;;134.13;23.83;;;;;1.50;97566.00;;;;8503527;27;20198;-66
2022/11/26 20:53:26;;;;;;;219.60;25.93;;;;;1.50;97565.00;;;;8502678;27;20199;-66
2022/11/26 20:58:04;;;;;;;127.23;24.63;;;;;1.50;97560.00;;;;8504317;27;20555;-67
2022/11/26 21:02:38;;;;;;;196.43;23.87;;;;;1.50;97561.00;;;;8503560;27;20204;-66
2022/11/26 21:07:15;;;;;;;175.43;26.07;;;;;1.50;97561.00;;;;8502583;27;20201;-67
2022/11/26 21:11:52;;;;;;;149.13;26.00;;;;;1.50;97554.00;;;;8503306;27;20220;-67
2022/11/26 21:15:56;;;;;;;152.60;31.17;;;;;1.50;97557.00;;;;8502662;27;20271;-67
2022/11/26 21:19:59;;;;;;;210.23;36.20;;;;;1.50;97551.00;;;;8502470;27;20200;-67
2022/11/26 21:24:03;;;;;;;177.33;30.97;;;;;1.50;97555.00;;;;8502462;27;20197;-67
2022/11/26 21:28:07;;;;;;;128.80;24.77;;;;;1.50;97557.00;;;;8502575;27;20619;-67
2022/11/26 21:32:45;;;;;;;191.57;24.80;;;;;1.50;97552.00;;;;8502981;27;20199;-67
2022/11/26 21:36:48;;;;;;;173.17;21.37;;;;;1.50;97543.00;;;;8501233;27;20612;-67
2022/11/26 21:40:51;;;;;;;226.77;27.27;;;;;1.50;97549.00;;;;8502749;27;20204;-67
2022/11/26 21:44:54;;;;;;;179.10;25.43;;;;;1.50;97548.00;;;;8501797;27;20217;-67
2022/11/26 21:48:59;;;;;;;200.40;22.70;;;;;1.40;97558.00;;;;8501773;27;20198;-67
2022/11/26 21:53:02;;;;;;;157.53;23.03;;;;;1.40;97556.00;;;;8501795;27;20193;-67
2022/11/26 21:57:05;;;;;;;96.27;19.03;;;;;1.40;97558.00;;;;8501914;27;20679;-67
2022/11/26 22:01:11;;;;;;;77.23;18.43;;;;;1.50;97550.00;;;;8501620;27;20207;-67
2022/11/26 22:05:16;;;;;;;63.43;15.93;;;;;1.50;97559.00;;;;8501362;27;20217;-67
2022/11/26 22:09:50;;;;;;;97.77;17.93;;;;;1.50;97552.00;;;;8501595;27;20626;-67
2022/11/26 22:13:54;;;;;;;120.27;18.63;;;;;1.50;97553.00;;;;8501722;27;20516;-66